Hon, Libya
Current Conditions -  °F | °C
As of 3:00 AM on Tuesday 25 Nov 2014 (Local Time) from DAUZ Reporting Station
Clear Clear  
Wind Chill: 55°   Ceiling: Unl
Heat Index: 55°   Visibility: 6mi
Dew Point: 30°   Wind: 3mph
Humidity: 38%   Direction: 50°NE
Pressure: 30.09"   Gusts: NA
Location:  29.13°N, 15.95°E
Report Text: DAUZ 250000Z 05003KT CAVOK 13/M01 Q1019
Loading
Personal Weather Stations






























Interactive Weather Map New forecast layout! Learn more

10-Day Weather Forecast

Advertisements
Track Severe Weather on mobile